createdAt,value
2018-07-23T00:01:11.258Z,71.40
2018-07-23T00:03:39.578Z,71.45
2018-07-23T00:06:07.927Z,71.80
2018-07-23T00:08:36.267Z,71.44
2018-07-23T00:11:05.003Z,71.87
2018-07-23T00:13:33.321Z,72.26
2018-07-23T00:16:01.673Z,72.72
2018-07-23T00:18:30.024Z,72.60
2018-07-23T00:20:58.365Z,73.02
2018-07-23T00:23:26.689Z,73.04
2018-07-23T00:25:54.999Z,73.94
2018-07-23T00:28:23.379Z,73.17
2018-07-23T00:30:51.717Z,73.63
2018-07-23T00:33:20.084Z,73.52
2018-07-23T00:35:48.444Z,74.13
2018-07-23T00:38:16.783Z,74.43
2018-07-23T00:40:45.126Z,73.84
2018-07-23T00:43:13.471Z,74.15
2018-07-23T00:45:42.469Z,74.64
2018-07-23T00:48:10.827Z,74.54
2018-07-23T00:50:39.219Z,74.48
2018-07-23T00:53:07.580Z,75.26
2018-07-23T00:55:35.918Z,75.22
2018-07-23T00:58:04.309Z,75.19
2018-07-23T01:00:32.676Z,74.95
2018-07-23T01:03:06.912Z,75.44
2018-07-23T01:05:37.363Z,75.68
2018-07-23T01:08:06.111Z,75.66
2018-07-23T01:10:34.442Z,76.09
2018-07-23T01:13:02.753Z,76.17
2018-07-23T01:15:31.088Z,76.09
2018-07-23T01:17:59.409Z,76.66
2018-07-23T01:20:27.749Z,75.80
2018-07-23T01:22:56.089Z,76.12
2018-07-23T01:25:24.449Z,76.33
2018-07-23T01:27:52.798Z,76.65
2018-07-23T01:30:21.137Z,76.43
2018-07-23T01:32:49.440Z,76.27
2018-07-23T01:35:17.741Z,76.36
2018-07-23T01:37:46.099Z,77.06
2018-07-23T01:40:14.451Z,77.11
2018-07-23T01:42:42.900Z,77.05
2018-07-23T01:45:11.226Z,77.10
2018-07-23T01:47:39.590Z,77.38
2018-07-23T01:50:07.942Z,77.15
2018-07-23T01:52:36.409Z,77.48
2018-07-23T01:55:05.011Z,77.66
2018-07-23T01:57:33.377Z,77.73
2018-07-23T02:00:01.719Z,77.96
2018-07-23T02:02:30.054Z,77.27
2018-07-23T02:04:58.404Z,78.06
2018-07-23T02:07:26.792Z,77.80
2018-07-23T02:09:55.145Z,77.48
2018-07-23T02:12:23.487Z,77.52
2018-07-23T02:14:51.862Z,78.22
2018-07-23T02:17:20.192Z,77.62
2018-07-23T02:19:48.552Z,78.01
2018-07-23T02:22:16.874Z,78.19
2018-07-23T02:24:45.190Z,78.33
2018-07-23T02:27:13.534Z,78.04
2018-07-23T02:29:41.933Z,77.86
2018-07-23T02:32:10.459Z,78.67
2018-07-23T02:34:38.805Z,78.39
2018-07-23T02:37:07.620Z,78.45
2018-07-23T02:39:36.030Z,78.61
2018-07-23T02:42:04.395Z,77.87
2018-07-23T02:44:33.303Z,77.54
2018-07-23T02:47:01.809Z,78.11
2018-07-23T02:49:30.180Z,77.66
2018-07-23T02:51:58.506Z,77.40
2018-07-23T02:54:26.884Z,77.34
2018-07-23T02:56:55.243Z,77.91
2018-07-23T02:59:23.752Z,77.83
2018-07-23T03:01:52.065Z,77.41
2018-07-23T03:04:20.424Z,77.71
2018-07-23T03:06:48.741Z,78.00
2018-07-23T03:09:17.125Z,77.64
2018-07-23T03:11:45.470Z,77.18
2018-07-23T03:14:13.835Z,76.92
2018-07-23T03:16:42.173Z,77.15
2018-07-23T03:19:10.529Z,76.81
2018-07-23T03:21:38.878Z,76.94
2018-07-23T03:24:07.222Z,76.87
2018-07-23T03:26:35.558Z,77.01
2018-07-23T03:29:03.923Z,76.31
2018-07-23T03:31:32.234Z,76.30
2018-07-23T03:34:00.579Z,76.52
2018-07-23T03:36:28.907Z,76.86
2018-07-23T03:38:57.370Z,76.45
2018-07-23T03:41:25.727Z,76.19
2018-07-23T03:43:54.092Z,76.70
2018-07-23T03:46:22.411Z,76.15
2018-07-23T03:48:50.879Z,76.69
2018-07-23T03:51:19.228Z,76.89
2018-07-23T03:53:47.570Z,76.62
2018-07-23T03:56:15.892Z,76.40
2018-07-23T03:58:44.279Z,76.97
2018-07-23T04:01:12.599Z,76.96
2018-07-23T04:03:41.072Z,76.74
2018-07-23T04:06:09.400Z,76.65
2018-07-23T04:08:37.833Z,76.46
2018-07-23T04:11:06.315Z,76.57
2018-07-23T04:13:34.657Z,76.17
2018-07-23T04:16:03.041Z,76.24
2018-07-23T04:18:31.421Z,76.50
2018-07-23T04:20:59.718Z,76.04
2018-07-23T04:23:28.069Z,76.29
2018-07-23T04:25:56.423Z,76.35
2018-07-23T04:28:24.774Z,76.78
2018-07-23T04:30:53.101Z,76.35
2018-07-23T04:33:21.455Z,75.18
2018-07-23T04:35:49.827Z,72.09
2018-07-23T04:38:18.183Z,71.14
2018-07-23T04:40:46.590Z,69.98
2018-07-23T04:43:14.931Z,69.32
2018-07-23T04:45:43.292Z,68.42
2018-07-23T04:48:11.633Z,66.05
2018-07-23T04:50:40.310Z,63.34
2018-07-23T04:53:08.614Z,60.89
2018-07-23T04:55:36.948Z,58.50
2018-07-23T04:58:05.367Z,55.81
2018-07-23T05:00:33.709Z,54.48
2018-07-23T05:03:02.030Z,52.12
2018-07-23T05:05:30.349Z,50.90
2018-07-23T05:07:58.693Z,50.21
2018-07-23T05:10:27.044Z,48.23
2018-07-23T05:12:55.505Z,47.11
2018-07-23T05:15:23.876Z,46.04
2018-07-23T05:17:52.217Z,45.22
2018-07-23T05:20:20.530Z,44.47
2018-07-23T05:22:48.828Z,43.48
2018-07-23T05:25:17.149Z,43.13
2018-07-23T05:27:45.519Z,43.07
2018-07-23T05:30:13.901Z,42.36
2018-07-23T05:32:42.259Z,41.79
2018-07-23T05:35:10.651Z,40.59
2018-07-23T05:37:39.010Z,39.76
2018-07-23T05:40:07.569Z,39.63
2018-07-23T05:42:35.870Z,40.14
2018-07-23T05:45:04.669Z,40.04
2018-07-23T05:47:33.019Z,40.27
2018-07-23T05:50:01.414Z,39.45
2018-07-23T05:52:29.730Z,40.10
2018-07-23T05:54:58.168Z,39.86
2018-07-23T05:57:26.524Z,39.84
2018-07-23T05:59:54.896Z,41.04
2018-07-23T06:02:23.267Z,41.76
2018-07-23T06:04:51.811Z,41.74
2018-07-23T06:07:20.184Z,42.66
2018-07-23T06:09:48.528Z,43.84
2018-07-23T06:12:16.935Z,45.11
2018-07-23T06:14:45.330Z,46.86
2018-07-23T06:17:13.719Z,47.18
2018-07-23T06:19:42.054Z,47.82
2018-07-23T06:22:10.451Z,49.01
2018-07-23T06:24:38.804Z,48.88
2018-07-23T06:27:07.147Z,48.63
2018-07-23T06:29:35.530Z,48.75
2018-07-23T06:32:03.880Z,49.03
2018-07-23T06:34:32.248Z,50.30
2018-07-23T06:37:00.620Z,50.51
2018-07-23T06:39:29.009Z,49.84
2018-07-23T06:41:57.373Z,50.24
2018-07-23T06:44:25.734Z,49.86
2018-07-23T06:46:54.077Z,50.98
2018-07-23T06:49:22.537Z,51.01
2018-07-23T06:51:50.865Z,51.28
2018-07-23T06:54:19.307Z,51.76
2018-07-23T06:56:47.629Z,51.50
2018-07-23T06:59:15.944Z,51.11
2018-07-23T07:01:44.311Z,51.53
2018-07-23T07:04:12.766Z,51.63
2018-07-23T07:06:41.115Z,51.50
2018-07-23T07:09:10.455Z,51.14
2018-07-23T07:11:39.058Z,51.32
2018-07-23T07:14:07.962Z,51.65
2018-07-23T07:16:36.344Z,50.81
2018-07-23T07:19:04.683Z,51.42
2018-07-23T07:21:32.999Z,51.06
2018-07-23T07:24:01.337Z,51.44
2018-07-23T07:26:29.655Z,51.46
2018-07-23T07:28:58.093Z,50.91
2018-07-23T07:31:26.526Z,49.82
2018-07-23T07:33:54.876Z,49.91
2018-07-23T07:36:23.229Z,50.13
2018-07-23T07:38:51.599Z,49.66
2018-07-23T07:41:19.960Z,50.21
2018-07-23T07:43:48.304Z,49.64
2018-07-23T07:46:16.724Z,48.34
2018-07-23T07:48:45.084Z,48.64
2018-07-23T07:51:13.461Z,48.53
2018-07-23T07:53:41.928Z,49.24
2018-07-23T07:56:10.314Z,48.50
2018-07-23T07:58:38.644Z,48.47
2018-07-23T08:01:07.050Z,48.59
2018-07-23T08:03:35.409Z,48.85
2018-07-23T08:06:03.799Z,48.96
2018-07-23T08:08:32.226Z,48.74
2018-07-23T08:11:00.585Z,49.64
2018-07-23T08:13:29.059Z,49.69
2018-07-23T08:15:57.433Z,50.09
2018-07-23T08:18:25.753Z,50.06
2018-07-23T08:20:54.115Z,49.18
2018-07-23T08:23:22.493Z,49.20
2018-07-23T08:25:50.924Z,49.65
2018-07-23T08:28:19.255Z,50.33
2018-07-23T08:30:47.574Z,50.48
2018-07-23T08:33:15.991Z,50.26
2018-07-23T08:35:44.357Z,49.50
2018-07-23T08:38:12.735Z,49.50
2018-07-23T08:40:41.113Z,49.49
2018-07-23T08:43:09.513Z,50.38
2018-07-23T08:45:37.895Z,50.86
2018-07-23T08:48:06.265Z,50.08
2018-07-23T08:50:34.835Z,49.53
2018-07-23T08:53:03.173Z,49.77
2018-07-23T08:55:31.509Z,49.28
2018-07-23T08:57:59.838Z,50.31
2018-07-23T09:00:28.312Z,50.69
2018-07-23T09:02:56.668Z,50.00
2018-07-23T09:05:25.079Z,49.63
2018-07-23T09:07:53.408Z,49.53
2018-07-23T09:10:21.752Z,49.98
2018-07-23T09:12:50.176Z,50.42
2018-07-23T09:15:18.559Z,49.53
2018-07-23T09:17:46.900Z,50.36
2018-07-23T09:20:15.265Z,49.90
2018-07-23T09:22:43.636Z,50.70
2018-07-23T09:25:12.031Z,49.79
2018-07-23T09:27:40.418Z,48.79
2018-07-23T09:31:11.959Z,48.89
2018-07-23T09:33:40.846Z,48.76
2018-07-23T09:36:09.572Z,48.98
2018-07-23T09:38:37.925Z,50.13
2018-07-23T09:41:06.559Z,50.29
2018-07-23T09:43:34.931Z,49.83
2018-07-23T09:46:03.293Z,49.22
2018-07-23T09:48:31.667Z,49.47
2018-07-23T09:51:00.052Z,49.54
2018-07-23T09:53:28.401Z,49.98
2018-07-23T09:55:56.724Z,48.54
2018-07-23T09:58:25.051Z,49.72
2018-07-23T10:01:01.591Z,48.58
2018-07-23T10:03:29.931Z,49.65
2018-07-23T10:05:58.289Z,49.46
2018-07-23T10:08:26.636Z,49.26
2018-07-23T10:10:54.987Z,49.10
2018-07-23T10:13:23.332Z,48.87
2018-07-23T10:15:51.686Z,48.66
2018-07-23T10:18:20.014Z,49.21
2018-07-23T10:20:48.370Z,48.83
2018-07-23T10:23:16.710Z,48.95
2018-07-23T10:25:45.061Z,48.98
2018-07-23T10:28:13.403Z,48.86
2018-07-23T10:30:41.876Z,49.09
2018-07-23T10:33:10.223Z,48.97
2018-07-23T10:35:38.676Z,48.47
2018-07-23T10:38:07.075Z,48.74
2018-07-23T10:40:35.432Z,48.69
2018-07-23T10:43:03.821Z,48.79
2018-07-23T10:45:32.159Z,48.33
2018-07-23T10:48:00.449Z,46.89
2018-07-23T10:50:28.827Z,46.81
2018-07-23T10:52:57.132Z,47.71
2018-07-23T10:55:25.475Z,47.55
2018-07-23T10:57:53.960Z,47.48
2018-07-23T11:00:22.300Z,47.00
2018-07-23T11:02:50.620Z,47.30
2018-07-23T11:05:19.011Z,46.80
2018-07-23T11:07:47.340Z,46.96
2018-07-23T11:10:15.756Z,47.90
2018-07-23T11:12:44.177Z,47.24
2018-07-23T11:15:12.539Z,46.72
2018-07-23T11:17:40.849Z,46.36
2018-07-23T11:20:11.401Z,46.63
2018-07-23T11:22:40.040Z,46.53
2018-07-23T11:25:38.504Z,46.65
2018-07-23T11:27:36.797Z,45.56
2018-07-23T11:30:05.658Z,46.34
2018-07-23T11:32:34.497Z,46.63
2018-07-23T11:35:02.830Z,46.51
2018-07-23T11:37:31.329Z,46.57
2018-07-23T11:39:59.644Z,46.42
2018-07-23T11:42:28.045Z,47.09
2018-07-23T11:44:56.392Z,46.70
2018-07-23T11:47:25.018Z,46.03
2018-07-23T11:49:53.434Z,45.33
2018-07-23T11:52:21.800Z,45.69
2018-07-23T11:54:50.152Z,45.82
2018-07-23T11:57:18.472Z,46.32
2018-07-23T11:59:46.923Z,45.75
2018-07-23T12:02:15.252Z,45.75
2018-07-23T12:04:43.776Z,45.26
2018-07-23T12:07:11.938Z,45.10
2018-07-23T12:09:40.257Z,44.48
2018-07-23T12:12:08.618Z,45.10
2018-07-23T12:14:37.077Z,44.08
2018-07-23T12:17:05.745Z,44.92
2018-07-23T12:19:34.105Z,43.12
2018-07-23T12:22:02.536Z,42.88
2018-07-23T12:24:30.992Z,44.28
2018-07-23T12:26:59.416Z,43.59
2018-07-23T12:29:28.470Z,43.79
2018-07-23T12:31:56.828Z,42.71
2018-07-23T12:34:25.114Z,43.04
2018-07-23T12:36:53.450Z,43.40
2018-07-23T12:39:21.950Z,43.37
2018-07-23T12:41:50.256Z,43.12
2018-07-23T12:44:18.606Z,42.52
2018-07-23T12:46:47.001Z,42.88
2018-07-23T12:49:15.315Z,43.38
2018-07-23T12:51:46.501Z,42.92
2018-07-23T12:54:14.804Z,43.02
2018-07-23T12:56:43.226Z,42.90
2018-07-23T12:59:11.794Z,42.63
2018-07-23T13:01:40.249Z,43.19
2018-07-23T13:04:08.557Z,43.57
2018-07-23T13:06:37.020Z,44.28
2018-07-23T13:09:08.667Z,44.09
2018-07-23T13:11:37.120Z,43.04
2018-07-23T13:14:05.494Z,43.52
2018-07-23T13:16:33.877Z,43.11
2018-07-23T13:19:02.442Z,43.82
2018-07-23T13:21:30.903Z,44.01
2018-07-23T13:23:59.217Z,44.30
2018-07-23T13:26:27.602Z,43.06
2018-07-23T13:28:55.956Z,42.33
2018-07-23T13:31:24.496Z,42.59
2018-07-23T13:33:52.867Z,43.64
2018-07-23T13:36:21.275Z,43.40
2018-07-23T13:38:49.748Z,43.57
2018-07-23T13:41:18.112Z,43.49
2018-07-23T13:43:46.485Z,42.98
2018-07-23T13:46:14.837Z,43.36
2018-07-23T13:48:43.174Z,42.62
2018-07-23T13:51:11.558Z,42.38
2018-07-23T13:53:39.968Z,42.66
2018-07-23T13:56:08.361Z,41.77
2018-07-23T13:58:36.692Z,42.78
2018-07-23T14:01:05.061Z,42.59
2018-07-23T14:03:33.387Z,43.31
2018-07-23T14:06:01.898Z,42.78
2018-07-23T14:08:30.335Z,43.84
2018-07-23T14:10:58.710Z,43.85
2018-07-23T14:13:27.107Z,43.23
2018-07-23T14:15:55.632Z,42.67
2018-07-23T14:18:24.014Z,43.30
2018-07-23T14:20:52.475Z,44.40
2018-07-23T14:23:21.402Z,42.49
2018-07-23T14:25:49.748Z,42.21
2018-07-23T14:28:18.158Z,42.55
2018-07-23T14:30:46.517Z,42.02
2018-07-23T14:33:16.061Z,41.51
2018-07-23T14:35:46.701Z,41.96
2018-07-23T14:38:15.166Z,42.10
2018-07-23T14:40:46.418Z,41.83
2018-07-23T14:43:19.937Z,41.93
2018-07-23T14:45:48.498Z,42.67
2018-07-23T14:48:17.148Z,42.67
2018-07-23T14:50:45.706Z,41.26
2018-07-23T14:53:14.074Z,40.90
2018-07-23T14:55:42.576Z,41.14
2018-07-23T14:58:10.886Z,40.79
2018-07-23T15:00:39.284Z,41.16
2018-07-23T15:03:07.856Z,40.71
2018-07-23T15:05:36.224Z,40.95
2018-07-23T15:08:04.723Z,41.23
2018-07-23T15:10:33.124Z,40.91
2018-07-23T15:13:01.457Z,40.66
2018-07-23T15:15:29.803Z,40.38
2018-07-23T15:17:58.138Z,40.54
2018-07-23T15:20:26.487Z,40.49
2018-07-23T15:22:55.001Z,40.63
2018-07-23T15:25:23.315Z,41.31
2018-07-23T15:27:51.689Z,40.41
2018-07-23T15:30:20.404Z,41.41
2018-07-23T15:32:48.716Z,41.25
2018-07-23T15:35:17.944Z,41.95
2018-07-23T15:37:46.263Z,41.75
2018-07-23T15:40:14.817Z,41.63
2018-07-23T15:42:43.172Z,40.79
2018-07-23T15:45:11.603Z,40.74
2018-07-23T15:47:40.428Z,40.53
2018-07-23T15:50:09.014Z,40.76
2018-07-23T15:52:37.722Z,40.17
2018-07-23T15:55:06.282Z,40.54
2018-07-23T15:57:34.878Z,41.22
2018-07-23T16:00:03.241Z,40.81
2018-07-23T16:02:31.981Z,40.45
2018-07-23T16:05:00.319Z,41.49
2018-07-23T16:07:28.785Z,41.30
2018-07-23T16:09:57.202Z,40.33
2018-07-23T16:12:25.547Z,40.50
2018-07-23T16:14:54.981Z,40.25
2018-07-23T16:17:23.303Z,40.59
2018-07-23T16:19:52.486Z,41.09
2018-07-23T16:22:21.084Z,41.64
2018-07-23T16:24:49.394Z,41.58
2018-07-23T16:27:17.840Z,40.67
2018-07-23T16:29:46.135Z,40.84
2018-07-23T16:32:14.494Z,41.28
2018-07-23T16:34:42.823Z,40.70
2018-07-23T16:37:11.186Z,40.88
2018-07-23T16:39:39.488Z,41.32
2018-07-23T16:42:07.877Z,40.42
2018-07-23T16:44:36.239Z,41.18
2018-07-23T16:47:04.640Z,40.49
2018-07-23T16:49:32.948Z,41.23
2018-07-23T16:52:01.221Z,40.85
2018-07-23T16:54:29.928Z,41.57
2018-07-23T16:56:58.266Z,40.65
2018-07-23T16:59:26.634Z,41.12
2018-07-23T17:01:54.938Z,40.99
2018-07-23T17:04:23.274Z,40.69
2018-07-23T17:06:51.601Z,41.55
2018-07-23T17:09:20.012Z,41.06
2018-07-23T17:11:48.328Z,41.15
2018-07-23T17:14:16.703Z,41.26
2018-07-23T17:16:45.059Z,41.07
2018-07-23T17:19:13.391Z,41.43
2018-07-23T17:21:41.756Z,41.26
2018-07-23T17:24:10.128Z,42.06
2018-07-23T17:26:38.458Z,42.18
2018-07-23T17:29:06.924Z,41.68
2018-07-23T17:31:35.231Z,42.57
2018-07-23T17:34:03.560Z,42.32
2018-07-23T17:36:31.900Z,42.77
2018-07-23T17:39:00.266Z,42.50
2018-07-23T17:41:28.608Z,42.35
2018-07-23T17:43:56.941Z,41.91
2018-07-23T17:46:25.253Z,42.73
2018-07-23T17:48:53.580Z,42.52
2018-07-23T17:51:21.895Z,41.81
2018-07-23T17:53:50.532Z,41.96
2018-07-23T17:56:18.861Z,42.19
2018-07-23T17:58:47.176Z,42.97
2018-07-23T18:01:15.572Z,42.05
2018-07-23T18:03:43.856Z,42.28
2018-07-23T18:06:12.160Z,42.99
2018-07-23T18:08:40.467Z,42.64
2018-07-23T18:11:08.879Z,43.27
2018-07-23T18:13:37.187Z,42.47
2018-07-23T18:16:05.522Z,42.70
2018-07-23T18:18:33.853Z,42.50
2018-07-23T18:21:02.314Z,42.61
2018-07-23T18:23:31.242Z,43.38
2018-07-23T18:26:00.022Z,43.29
2018-07-23T18:28:28.530Z,43.10
2018-07-23T18:30:56.886Z,43.80
2018-07-23T18:33:25.221Z,43.53
2018-07-23T18:35:53.533Z,42.87
2018-07-23T18:38:21.950Z,43.88
2018-07-23T18:40:50.309Z,43.31
2018-07-23T18:43:18.631Z,43.38
2018-07-23T18:45:46.961Z,44.07
2018-07-23T18:49:32.112Z,44.13
2018-07-23T18:52:00.421Z,43.44
2018-07-23T18:54:29.946Z,43.59
2018-07-23T18:56:59.564Z,43.75
2018-07-23T18:59:27.931Z,44.19
2018-07-23T19:01:57.034Z,45.26
2018-07-23T19:04:25.418Z,46.63
2018-07-23T19:06:53.749Z,46.87
2018-07-23T19:09:23.573Z,47.11
2018-07-23T19:11:53.012Z,48.03
2018-07-23T19:14:21.563Z,49.24
2018-07-23T19:16:50.910Z,49.17
2018-07-23T19:19:19.200Z,49.68
2018-07-23T19:21:47.525Z,50.03
2018-07-23T19:24:15.891Z,50.76
2018-07-23T19:26:44.260Z,52.13
2018-07-23T19:29:12.579Z,51.78
2018-07-23T19:31:40.989Z,52.98
2018-07-23T19:34:09.366Z,53.74
2018-07-23T19:36:37.750Z,53.97
2018-07-23T19:39:09.706Z,54.54
2018-07-23T19:41:38.610Z,55.04
2018-07-23T19:44:07.776Z,55.73
2018-07-23T19:46:36.113Z,56.31
2018-07-23T19:49:04.637Z,56.58
2018-07-23T19:51:33.131Z,57.97
2018-07-23T19:54:01.507Z,58.08
2018-07-23T19:56:29.820Z,58.18
2018-07-23T19:58:58.218Z,59.53
2018-07-23T20:01:26.599Z,59.90
2018-07-23T20:03:54.896Z,59.84
2018-07-23T20:06:24.604Z,59.62
2018-07-23T20:08:53.941Z,59.09
2018-07-23T20:11:23.009Z,59.67
2018-07-23T20:13:51.537Z,59.49
2018-07-23T20:16:20.040Z,59.25
2018-07-23T20:18:48.404Z,59.32
2018-07-23T20:21:16.835Z,60.08
2018-07-23T20:23:45.442Z,60.63
2018-07-23T20:26:13.860Z,60.39
2018-07-23T20:28:42.627Z,61.81
2018-07-23T20:31:10.928Z,61.19
2018-07-23T20:33:39.285Z,61.97
2018-07-23T20:36:07.667Z,62.42
2018-07-23T20:38:36.461Z,63.08
2018-07-23T20:41:04.847Z,63.26
2018-07-23T20:43:33.882Z,63.31
2018-07-23T20:46:02.521Z,63.67
2018-07-23T20:48:30.847Z,64.00
2018-07-23T20:50:59.207Z,64.64
2018-07-23T20:53:27.614Z,65.04
2018-07-23T20:55:55.928Z,65.50
2018-07-23T20:58:24.515Z,66.05
2018-07-23T21:00:52.869Z,65.68
2018-07-23T21:03:21.278Z,65.81
2018-07-23T21:05:49.599Z,65.97
2018-07-23T21:08:18.015Z,66.87
2018-07-23T21:10:46.357Z,66.97
2018-07-23T21:13:14.687Z,66.44
2018-07-23T21:15:43.032Z,66.79
2018-07-23T21:18:11.364Z,66.82
2018-07-23T21:20:39.668Z,67.27
2018-07-23T21:23:08.149Z,66.72
2018-07-23T21:25:36.619Z,66.52
2018-07-23T21:28:05.017Z,66.81
2018-07-23T21:30:33.433Z,66.88
2018-07-23T21:33:02.057Z,65.90
2018-07-23T21:35:30.432Z,66.22
2018-07-23T21:37:58.816Z,65.94
2018-07-23T21:40:27.164Z,66.39
2018-07-23T21:42:55.464Z,66.82
2018-07-23T21:45:23.814Z,66.76
2018-07-23T21:47:52.286Z,66.58
2018-07-23T21:50:20.610Z,67.47
2018-07-23T21:52:48.930Z,67.15
2018-07-23T21:55:17.338Z,66.73
2018-07-23T21:57:45.783Z,66.90
2018-07-23T22:00:15.456Z,67.08
2018-07-23T22:02:43.795Z,67.55
2018-07-23T22:05:12.163Z,67.26
2018-07-23T22:07:40.919Z,68.00
2018-07-23T22:10:10.276Z,67.13
2018-07-23T22:12:38.634Z,67.22
2018-07-23T22:15:09.220Z,68.03
2018-07-23T22:17:37.837Z,68.17
2018-07-23T22:20:06.601Z,68.33
2018-07-23T22:22:34.955Z,68.59
2018-07-23T22:25:03.462Z,69.19
2018-07-23T22:27:31.934Z,68.85
2018-07-23T22:30:00.340Z,68.86
2018-07-23T22:32:28.684Z,68.77
2018-07-23T22:34:57.005Z,68.96
2018-07-23T22:37:25.338Z,68.32
2018-07-23T22:39:53.732Z,68.58
2018-07-23T22:42:23.016Z,68.21
2018-07-23T22:44:52.088Z,68.64
2018-07-23T22:47:20.422Z,68.70
2018-07-23T22:49:48.986Z,68.41
2018-07-23T22:52:17.696Z,68.75
2018-07-23T22:54:46.021Z,68.62
2018-07-23T22:57:14.518Z,68.67
2018-07-23T22:59:42.936Z,69.68
2018-07-23T23:02:11.298Z,70.00
2018-07-23T23:04:39.614Z,69.72
2018-07-23T23:07:07.994Z,69.44
2018-07-23T23:09:36.555Z,69.73
2018-07-23T23:12:04.977Z,69.76
2018-07-23T23:14:33.533Z,70.71
2018-07-23T23:17:01.915Z,70.04
2018-07-23T23:19:30.548Z,70.67
2018-07-23T23:21:59.031Z,70.09
2018-07-23T23:24:27.366Z,70.66
2018-07-23T23:26:55.695Z,69.83
2018-07-23T23:29:24.089Z,70.76
2018-07-23T23:31:52.471Z,70.84
2018-07-23T23:34:20.829Z,70.89
2018-07-23T23:36:49.156Z,70.87
2018-07-23T23:39:17.522Z,71.27
2018-07-23T23:41:46.006Z,71.06
2018-07-23T23:44:14.354Z,72.01
2018-07-23T23:46:42.844Z,71.90
2018-07-23T23:49:11.148Z,72.04
2018-07-23T23:51:39.498Z,72.43
2018-07-23T23:54:08.110Z,71.88
2018-07-23T23:56:36.487Z,72.60
2018-07-23T23:59:04.841Z,72.37
